createdAt,value
2018-04-25T00:00:14.808Z,71.43
2018-04-25T00:02:42.221Z,65.23
2018-04-25T00:05:09.648Z,68.63
2018-04-25T00:07:37.886Z,69.30
2018-04-25T00:10:05.304Z,74.00
2018-04-25T00:12:33.493Z,70.40
2018-04-25T00:15:01.708Z,68.23
2018-04-25T00:17:29.873Z,64.87
2018-04-25T00:19:58.077Z,65.30
2018-04-25T00:22:25.479Z,63.90
2018-04-25T00:24:53.044Z,64.00
2018-04-25T00:27:21.396Z,69.13
2018-04-25T00:29:48.812Z,63.93
2018-04-25T00:32:16.236Z,65.07
2018-04-25T00:34:43.669Z,69.23
2018-04-25T00:37:11.080Z,70.60
2018-04-25T00:39:38.497Z,65.10
2018-04-25T00:42:05.915Z,69.47
2018-04-25T00:44:33.422Z,62.50
2018-04-25T00:47:00.863Z,72.47
2018-04-25T00:49:28.279Z,69.10
2018-04-25T00:51:55.696Z,66.60
2018-04-25T00:54:23.115Z,70.37
2018-04-25T00:56:50.537Z,66.47
2018-04-25T00:59:17.990Z,61.87
2018-04-25T01:01:45.413Z,69.10
2018-04-25T01:04:12.835Z,67.70
2018-04-25T01:06:40.283Z,62.57
2018-04-25T01:09:07.713Z,66.50
2018-04-25T01:11:35.121Z,71.57
2018-04-25T01:14:02.540Z,67.33
2018-04-25T01:16:29.962Z,67.13
2018-04-25T01:18:58.263Z,69.07
2018-04-25T01:21:25.726Z,65.63
2018-04-25T01:23:53.197Z,64.37
2018-04-25T01:26:20.612Z,71.33
2018-04-25T01:28:51.552Z,69.03
2018-04-25T01:31:18.963Z,68.97
2018-04-25T01:33:53.012Z,68.17
2018-04-25T01:36:32.008Z,70.10
2018-04-25T01:41:55.902Z,73.03
2018-04-25T01:44:24.096Z,75.00
2018-04-25T01:50:18.559Z,73.87
2018-04-25T01:52:58.615Z,77.30
2018-04-25T01:55:37.952Z,72.07
2018-04-25T01:58:18.056Z,73.73
2018-04-25T02:00:58.056Z,65.93
2018-04-25T02:03:37.589Z,70.77
2018-04-25T02:06:06.597Z,69.90
2018-04-25T02:08:34.013Z,78.87
2018-04-25T02:11:01.435Z,67.97
2018-04-25T02:13:28.897Z,69.60
2018-04-25T02:15:57.092Z,71.90
2018-04-25T02:18:24.506Z,74.53
2018-04-25T02:20:51.921Z,71.43
2018-04-25T02:23:19.327Z,68.53
2018-04-25T02:25:46.740Z,72.37
2018-04-25T02:28:14.149Z,71.60
2018-04-25T02:30:41.584Z,73.40
2018-04-25T02:33:09.006Z,71.82
2018-04-25T02:35:36.422Z,73.07
2018-04-25T02:38:03.833Z,73.87
2018-04-25T02:40:31.249Z,77.90
2018-04-25T02:42:58.666Z,74.23
2018-04-25T02:45:26.088Z,70.63
2018-04-25T02:47:54.888Z,69.65
2018-04-25T02:50:22.303Z,66.67
2018-04-25T02:52:49.726Z,70.87
2018-04-25T02:55:17.205Z,71.53
2018-04-25T02:57:44.620Z,69.40
2018-04-25T03:00:12.045Z,69.07
2018-04-25T03:02:39.469Z,59.50
2018-04-25T03:05:06.980Z,62.73
2018-04-25T03:07:34.448Z,66.63
2018-04-25T03:10:01.990Z,65.90
2018-04-25T03:12:29.397Z,68.83
2018-04-25T03:14:56.817Z,67.13
2018-04-25T03:17:25.326Z,70.30
2018-04-25T03:19:53.545Z,63.60
2018-04-25T03:22:20.969Z,61.53
2018-04-25T03:24:48.396Z,65.27
2018-04-25T03:27:15.814Z,58.10
2018-04-25T03:29:43.993Z,58.60
2018-04-25T03:32:12.184Z,60.47
2018-04-25T03:34:40.369Z,61.83
2018-04-25T03:37:08.548Z,60.27
2018-04-25T03:39:36.791Z,62.03
2018-04-25T03:42:04.192Z,61.87
2018-04-25T03:44:31.613Z,60.57
2018-04-25T03:46:59.019Z,54.63
2018-04-25T03:49:26.540Z,55.93
2018-04-25T03:51:53.965Z,59.00
2018-04-25T03:54:21.472Z,53.10
2018-04-25T03:56:48.896Z,53.27
2018-04-25T03:59:17.813Z,50.87
2018-04-25T04:01:45.233Z,54.80
2018-04-25T04:04:12.673Z,58.03
2018-04-25T04:06:40.883Z,48.43
2018-04-25T04:09:08.344Z,38.83
2018-04-25T04:11:35.772Z,39.37
2018-04-25T04:14:03.240Z,42.90
2018-04-25T04:16:30.760Z,39.03
2018-04-25T04:18:58.229Z,38.07
2018-04-25T04:21:25.808Z,38.78
2018-04-25T04:23:53.212Z,33.83
2018-04-25T04:26:21.396Z,39.63
2018-04-25T04:28:48.872Z,38.73
2018-04-25T04:31:16.500Z,38.20
2018-04-25T04:33:43.904Z,31.63
2018-04-25T04:36:11.523Z,34.20
2018-04-25T04:38:38.956Z,34.92
2018-04-25T04:41:06.364Z,31.17
2018-04-25T04:43:33.796Z,29.40
2018-04-25T04:46:01.973Z,26.27
2018-04-25T04:48:29.407Z,26.90
2018-04-25T04:50:56.825Z,23.33
2018-04-25T04:53:25.954Z,23.67
2018-04-25T04:55:53.368Z,22.63
2018-04-25T04:58:20.792Z,22.10
2018-04-25T05:00:48.205Z,21.00
2018-04-25T05:03:15.616Z,19.73
2018-04-25T05:05:43.044Z,22.90
2018-04-25T05:08:10.451Z,25.60
2018-04-25T05:10:37.888Z,25.80
2018-04-25T05:13:05.403Z,25.40
2018-04-25T05:15:32.741Z,20.40
2018-04-25T05:18:00.932Z,25.60
2018-04-25T05:20:29.124Z,18.83
2018-04-25T05:22:57.306Z,23.40
2018-04-25T05:25:26.408Z,19.87
2018-04-25T05:27:54.601Z,23.90
2018-04-25T05:30:22.765Z,28.87
2018-04-25T05:32:51.696Z,23.50
2018-04-25T05:35:19.122Z,36.97
2018-04-25T05:37:46.532Z,28.20
2018-04-25T05:40:14.716Z,20.80
2018-04-25T05:42:42.913Z,21.57
2018-04-25T05:45:10.331Z,28.87
2018-04-25T05:47:37.745Z,22.53
2018-04-25T05:50:05.926Z,23.03
2018-04-25T05:52:34.245Z,18.60
2018-04-25T05:55:01.672Z,22.70
2018-04-25T05:57:29.893Z,20.30
2018-04-25T05:59:57.321Z,24.10
2018-04-25T06:02:25.514Z,21.73
2018-04-25T06:04:53.707Z,21.80
2018-04-25T06:07:21.898Z,21.23
2018-04-25T06:09:50.097Z,17.93
2018-04-25T06:12:17.522Z,23.30
2018-04-25T06:14:44.934Z,18.33
2018-04-25T06:17:12.353Z,20.20
2018-04-25T06:19:40.591Z,20.87
2018-04-25T06:22:08.021Z,17.53
2018-04-25T06:24:36.201Z,22.30
2018-04-25T06:27:03.683Z,15.23
2018-04-25T06:29:31.862Z,16.80
2018-04-25T06:31:59.283Z,18.00
2018-04-25T06:34:28.232Z,15.85
2018-04-25T06:36:55.652Z,15.20
2018-04-25T06:39:23.095Z,16.40
2018-04-25T06:41:50.488Z,24.73
2018-04-25T06:44:17.942Z,20.63
2018-04-25T06:46:46.107Z,22.03
2018-04-25T06:49:14.321Z,18.77
2018-04-25T06:51:41.753Z,21.50
2018-04-25T06:54:09.172Z,21.80
2018-04-25T06:56:36.604Z,19.97
2018-04-25T06:59:04.034Z,19.23
2018-04-25T07:01:31.457Z,29.03
2018-04-25T07:03:58.893Z,27.90
2018-04-25T07:06:26.506Z,24.03
2018-04-25T07:08:53.962Z,45.03
2018-04-25T07:11:21.392Z,17.73
2018-04-25T07:13:48.818Z,18.67
2018-04-25T07:16:16.222Z,14.07
2018-04-25T07:18:43.646Z,14.63
2018-04-25T07:21:11.116Z,29.03
2018-04-25T07:23:38.545Z,12.70
2018-04-25T07:26:05.956Z,12.80
2018-04-25T07:28:33.897Z,15.83
2018-04-25T07:31:02.107Z,10.43
2018-04-25T07:33:30.265Z,14.83
2018-04-25T07:35:59.192Z,12.93
2018-04-25T07:38:26.668Z,10.23
2018-04-25T07:40:54.841Z,14.40
2018-04-25T07:43:22.321Z,9.90
2018-04-25T07:45:49.736Z,9.93
2018-04-25T07:48:17.168Z,15.73
2018-04-25T07:50:44.584Z,8.43
2018-04-25T07:53:12.000Z,7.57
2018-04-25T07:55:39.408Z,5.90
2018-04-25T07:58:06.843Z,6.90
2018-04-25T08:00:34.321Z,6.10
2018-04-25T08:03:01.782Z,6.27
2018-04-25T08:05:29.193Z,6.30
2018-04-25T08:07:56.609Z,6.80
2018-04-25T08:10:24.047Z,6.37
2018-04-25T08:13:04.045Z,9.00
2018-04-25T08:15:43.368Z,7.13
2018-04-25T08:18:23.428Z,5.50
2018-04-25T08:23:54.961Z,5.80
2018-04-25T08:26:22.435Z,7.30
2018-04-25T08:28:49.892Z,7.20
2018-04-25T08:31:17.316Z,5.60
2018-04-25T08:33:44.834Z,4.97
2018-04-25T08:36:12.247Z,5.90
2018-04-25T08:38:39.769Z,7.00
2018-04-25T08:41:07.944Z,6.13
2018-04-25T08:43:36.184Z,6.63
2018-04-25T08:46:03.692Z,13.17
2018-04-25T08:48:31.890Z,10.53
2018-04-25T08:50:59.369Z,7.10
2018-04-25T08:53:27.525Z,5.50
2018-04-25T08:55:54.940Z,5.40
2018-04-25T08:58:22.361Z,6.57
2018-04-25T09:00:49.776Z,5.80
2018-04-25T09:03:17.201Z,8.70
2018-04-25T09:05:45.394Z,4.53
2018-04-25T09:08:13.593Z,5.77
2018-04-25T09:10:41.004Z,4.37
2018-04-25T09:13:08.529Z,18.53
2018-04-25T09:15:36.020Z,7.13
2018-04-25T09:18:04.146Z,8.70
2018-04-25T09:20:31.582Z,7.30
2018-04-25T09:22:59.896Z,5.60
2018-04-25T09:25:27.330Z,6.43
2018-04-25T09:27:54.746Z,7.27
2018-04-25T09:30:22.165Z,9.30
2018-04-25T09:32:49.588Z,7.57
2018-04-25T09:35:17.772Z,7.82
2018-04-25T09:37:45.948Z,8.33
2018-04-25T09:40:13.360Z,9.23
2018-04-25T09:42:40.783Z,12.03
2018-04-25T09:45:08.299Z,7.87
2018-04-25T09:47:36.466Z,8.40
2018-04-25T09:50:04.666Z,14.53
2018-04-25T09:52:32.063Z,8.03
2018-04-25T09:55:00.408Z,9.43
2018-04-25T09:57:28.627Z,9.53
2018-04-25T09:59:56.795Z,10.03
2018-04-25T10:02:30.723Z,10.80
2018-04-25T10:04:58.136Z,5.83
2018-04-25T10:07:25.569Z,17.87
2018-04-25T10:09:53.026Z,5.27
2018-04-25T10:12:20.593Z,4.27
2018-04-25T10:14:48.757Z,3.60
2018-04-25T10:17:16.966Z,4.03
2018-04-25T10:19:45.130Z,5.20
2018-04-25T10:22:13.315Z,4.07
2018-04-25T10:24:41.494Z,3.17
2018-04-25T10:27:09.846Z,4.70
2018-04-25T10:29:37.269Z,8.50
2018-04-25T10:32:05.530Z,7.77
2018-04-25T10:34:33.673Z,2.80
2018-04-25T10:37:01.904Z,5.50
2018-04-25T10:39:29.314Z,4.53
2018-04-25T10:41:56.721Z,4.83
2018-04-25T10:44:24.141Z,5.43
2018-04-25T10:46:51.595Z,17.83
2018-04-25T10:49:19.804Z,5.23
2018-04-25T10:51:47.212Z,8.30
2018-04-25T10:54:14.685Z,5.87
2018-04-25T10:56:42.068Z,6.03
2018-04-25T10:59:10.254Z,3.23
2018-04-25T11:01:38.428Z,4.23
2018-04-25T11:04:05.937Z,3.37
2018-04-25T11:06:34.149Z,7.80
2018-04-25T11:09:02.376Z,4.40
2018-04-25T11:11:29.780Z,3.53
2018-04-25T11:13:57.248Z,12.33
2018-04-25T11:16:24.651Z,8.37
2018-04-25T11:18:52.086Z,6.33
2018-04-25T11:21:19.504Z,5.03
2018-04-25T11:23:46.930Z,2.40
2018-04-25T11:26:15.105Z,3.00
2018-04-25T11:28:42.699Z,5.93
2018-04-25T11:31:10.103Z,6.43
2018-04-25T11:33:37.535Z,5.70
2018-04-25T11:36:04.962Z,8.45
2018-04-25T11:38:33.282Z,3.90
2018-04-25T11:41:02.375Z,5.33
2018-04-25T11:43:29.828Z,13.37
2018-04-25T11:45:57.228Z,5.80
2018-04-25T11:48:24.644Z,5.10
2018-04-25T11:50:52.059Z,8.33
2018-04-25T11:53:19.511Z,6.07
2018-04-25T11:55:47.708Z,2.73
2018-04-25T11:58:15.127Z,4.60
2018-04-25T12:00:42.551Z,3.93
2018-04-25T12:03:10.044Z,4.03
2018-04-25T12:05:37.388Z,6.77
2018-04-25T12:08:04.801Z,4.37
2018-04-25T12:10:32.652Z,4.43
2018-04-25T12:13:00.079Z,4.43
2018-04-25T12:15:28.265Z,5.10
2018-04-25T12:17:55.750Z,3.73
2018-04-25T12:20:23.905Z,6.13
2018-04-25T12:22:52.085Z,6.00
2018-04-25T12:25:19.502Z,3.80
2018-04-25T12:27:46.900Z,8.80
2018-04-25T12:30:14.325Z,11.23
2018-04-25T12:32:41.725Z,4.57
2018-04-25T12:35:09.166Z,4.30
2018-04-25T12:37:36.585Z,3.30
2018-04-25T12:40:04.001Z,2.90
2018-04-25T12:42:31.466Z,5.57
2018-04-25T12:44:59.650Z,2.50
2018-04-25T12:47:27.063Z,4.60
2018-04-25T12:49:54.496Z,6.18
2018-04-25T12:52:21.901Z,3.80
2018-04-25T12:54:49.328Z,4.13
2018-04-25T12:57:16.742Z,6.57
2018-04-25T12:59:44.150Z,4.03
2018-04-25T13:02:11.568Z,5.93
2018-04-25T13:04:38.994Z,2.43
2018-04-25T13:07:07.161Z,5.70
2018-04-25T13:09:34.592Z,8.60
2018-04-25T13:12:02.000Z,6.27
2018-04-25T13:14:29.412Z,3.60
2018-04-25T13:16:56.845Z,3.95
2018-04-25T13:19:25.037Z,3.63
2018-04-25T13:21:52.465Z,7.20
2018-04-25T13:24:19.873Z,6.27
2018-04-25T13:26:47.295Z,4.47
2018-04-25T13:29:14.703Z,4.70
2018-04-25T13:31:42.117Z,5.57
2018-04-25T13:34:09.564Z,7.93
2018-04-25T13:36:37.038Z,3.87
2018-04-25T13:39:04.491Z,3.45
2018-04-25T13:41:31.892Z,7.13
2018-04-25T13:43:59.317Z,8.90
2018-04-25T13:46:27.487Z,7.43
2018-04-25T13:48:55.672Z,8.00
2018-04-25T13:51:23.845Z,11.23
2018-04-25T13:53:52.172Z,7.37
2018-04-25T13:56:19.611Z,8.80
2018-04-25T13:58:47.827Z,4.73
2018-04-25T14:01:15.236Z,4.50
2018-04-25T14:03:42.669Z,8.43
2018-04-25T14:06:10.162Z,13.33
2018-04-25T14:08:37.562Z,7.60
2018-04-25T14:11:05.780Z,3.60
2018-04-25T14:13:34.867Z,7.40
2018-04-25T14:16:03.061Z,3.30
2018-04-25T14:18:30.460Z,5.90
2018-04-25T14:20:57.975Z,5.80
2018-04-25T14:23:25.384Z,3.90
2018-04-25T14:25:52.792Z,5.73
2018-04-25T14:28:20.362Z,4.57
2018-04-25T14:30:47.756Z,7.60
2018-04-25T14:33:15.185Z,5.15
2018-04-25T14:35:42.593Z,5.60
2018-04-25T14:38:10.768Z,10.67
2018-04-25T14:40:38.188Z,6.20
2018-04-25T14:43:05.649Z,4.50
2018-04-25T14:45:33.816Z,5.30
2018-04-25T14:48:01.233Z,6.57
2018-04-25T14:50:28.645Z,8.60
2018-04-25T14:52:56.821Z,9.10
2018-04-25T14:55:24.241Z,6.80
2018-04-25T14:57:51.750Z,5.97
2018-04-25T15:00:19.102Z,5.67
2018-04-25T15:02:46.514Z,5.20
2018-04-25T15:05:14.696Z,5.63
2018-04-25T15:07:42.888Z,5.28
2018-04-25T15:10:11.064Z,4.60
2018-04-25T15:12:39.258Z,5.90
2018-04-25T15:15:07.496Z,4.30
2018-04-25T15:17:34.916Z,5.87
2018-04-25T15:20:02.528Z,6.43
2018-04-25T15:22:29.929Z,5.57
2018-04-25T15:24:57.340Z,5.10
2018-04-25T15:27:24.777Z,6.60
2018-04-25T15:29:52.957Z,5.50
2018-04-25T15:32:21.186Z,7.50
2018-04-25T15:34:49.343Z,8.23
2018-04-25T15:37:17.551Z,10.10
2018-04-25T15:39:45.008Z,9.80
2018-04-25T15:42:12.436Z,6.60
2018-04-25T15:44:39.825Z,7.90
2018-04-25T15:47:08.016Z,8.23
2018-04-25T15:49:37.165Z,8.47
2018-04-25T15:52:04.581Z,7.50
2018-04-25T15:54:31.999Z,11.60
2018-04-25T15:56:59.453Z,9.17
2018-04-25T15:59:26.860Z,6.90
2018-04-25T16:01:54.282Z,10.87
2018-04-25T16:04:22.480Z,7.60
2018-04-25T16:06:50.049Z,9.27
2018-04-25T16:09:18.280Z,12.50
2018-04-25T16:11:45.701Z,7.10
2018-04-25T16:14:13.120Z,10.87
2018-04-25T16:16:40.540Z,8.57
2018-04-25T16:19:08.239Z,10.67
2018-04-25T16:21:35.654Z,7.53
2018-04-25T16:24:03.873Z,9.13
2018-04-25T16:26:31.349Z,9.03
2018-04-25T16:28:58.760Z,8.23
2018-04-25T16:31:26.179Z,10.00
2018-04-25T16:33:53.592Z,8.60
2018-04-25T16:36:21.112Z,9.03
2018-04-25T16:38:48.516Z,8.07
2018-04-25T16:41:15.933Z,8.17
2018-04-25T16:43:44.112Z,11.53
2018-04-25T16:46:12.312Z,12.83
2018-04-25T16:48:40.523Z,9.07
2018-04-25T16:51:08.814Z,8.60
2018-04-25T16:53:36.219Z,9.00
2018-04-25T16:56:03.651Z,6.70
2018-04-25T16:58:31.083Z,15.07
2018-04-25T17:00:59.272Z,12.53
2018-04-25T17:03:26.685Z,6.23
2018-04-25T17:05:54.104Z,7.57
2018-04-25T17:08:22.302Z,7.17
2018-04-25T17:10:49.786Z,9.53
2018-04-25T17:13:17.248Z,11.07
2018-04-25T17:15:45.538Z,8.73
2018-04-25T17:18:13.008Z,11.00
2018-04-25T17:20:40.426Z,10.10
2018-04-25T17:23:09.349Z,13.05
2018-04-25T17:25:37.564Z,7.63
2018-04-25T17:28:04.977Z,6.87
2018-04-25T17:30:32.383Z,12.17
2018-04-25T17:33:00.594Z,9.27
2018-04-25T17:35:28.019Z,12.07
2018-04-25T17:37:55.421Z,7.37
2018-04-25T17:40:22.816Z,8.03
2018-04-25T17:42:50.266Z,11.60
2018-04-25T17:45:17.661Z,10.60
2018-04-25T17:47:45.089Z,10.07
2018-04-25T17:50:12.498Z,9.30
2018-04-25T17:52:39.910Z,8.50
2018-04-25T17:55:09.013Z,8.27
2018-04-25T17:57:37.232Z,8.93
2018-04-25T18:00:04.649Z,8.07
2018-04-25T18:02:32.150Z,8.60
2018-04-25T18:04:59.580Z,7.37
2018-04-25T18:07:26.984Z,7.77
2018-04-25T18:09:54.471Z,9.87
2018-04-25T18:12:22.029Z,11.63
2018-04-25T18:14:49.508Z,8.60
2018-04-25T18:17:16.932Z,12.10
2018-04-25T18:19:44.344Z,10.90
2018-04-25T18:22:11.762Z,13.27
2018-04-25T18:24:40.164Z,14.52
2018-04-25T18:27:07.780Z,11.40
2018-04-25T18:29:35.252Z,8.70
2018-04-25T18:32:02.656Z,7.28
2018-04-25T18:34:30.068Z,8.40
2018-04-25T18:36:57.484Z,10.20
2018-04-25T18:39:24.984Z,8.60
2018-04-25T18:41:53.083Z,15.53
2018-04-25T18:44:21.260Z,19.97
2018-04-25T18:46:49.442Z,5.67
2018-04-25T18:49:17.627Z,5.80
2018-04-25T18:51:45.044Z,8.00
2018-04-25T18:54:12.453Z,6.17
2018-04-25T18:56:40.657Z,5.37
2018-04-25T18:59:08.052Z,8.30
2018-04-25T19:01:35.485Z,7.80
2018-04-25T19:04:03.668Z,6.37
2018-04-25T19:06:31.868Z,6.40
2018-04-25T19:09:00.034Z,8.40
2018-04-25T19:11:27.436Z,7.30
2018-04-25T19:13:54.857Z,8.43
2018-04-25T19:16:22.281Z,11.23
2018-04-25T19:18:49.684Z,9.10
2018-04-25T19:21:17.093Z,7.27
2018-04-25T19:23:45.284Z,7.63
2018-04-25T19:26:13.451Z,12.27
2018-04-25T19:28:41.632Z,14.37
2018-04-25T19:31:09.077Z,8.57
2018-04-25T19:33:36.531Z,10.17
2018-04-25T19:36:03.924Z,10.47
2018-04-25T19:38:31.357Z,11.13
2018-04-25T19:40:58.813Z,9.37
2018-04-25T19:43:26.225Z,11.30
2018-04-25T19:45:53.650Z,8.50
2018-04-25T19:48:21.064Z,9.10
2018-04-25T19:50:48.492Z,15.27
2018-04-25T19:53:15.921Z,13.03
2018-04-25T19:55:44.121Z,12.63
2018-04-25T19:58:12.313Z,12.20
2018-04-25T20:00:41.403Z,14.10
2018-04-25T20:03:10.508Z,10.27
2018-04-25T20:05:38.689Z,9.77
2018-04-25T20:08:06.100Z,10.10
2018-04-25T20:10:33.505Z,12.57
2018-04-25T20:13:00.936Z,9.77
2018-04-25T20:15:28.391Z,14.60
2018-04-25T20:17:55.800Z,11.47
2018-04-25T20:20:23.215Z,10.23
2018-04-25T20:22:51.431Z,13.73
2018-04-25T20:25:18.864Z,9.97
2018-04-25T20:27:47.066Z,12.73
2018-04-25T20:30:14.503Z,11.10
2018-04-25T20:32:41.908Z,17.33
2018-04-25T20:35:09.324Z,18.23
2018-04-25T20:37:36.757Z,10.63
2018-04-25T20:40:04.220Z,10.80
2018-04-25T20:42:31.637Z,11.30
2018-04-25T20:44:59.042Z,13.73
2018-04-25T20:47:26.456Z,18.07
2018-04-25T20:49:53.861Z,10.77
2018-04-25T20:52:22.038Z,15.30
2018-04-25T20:54:50.208Z,18.23
2018-04-25T20:57:18.384Z,20.20
2018-04-25T20:59:45.809Z,20.70
2018-04-25T21:02:13.316Z,12.70
2018-04-25T21:04:41.654Z,14.90
2018-04-25T21:07:09.833Z,12.90
2018-04-25T21:09:38.063Z,12.70
2018-04-25T21:12:05.474Z,18.03
2018-04-25T21:14:33.676Z,17.47
2018-04-25T21:17:01.885Z,14.10
2018-04-25T21:19:30.178Z,14.33
2018-04-25T21:21:57.603Z,13.37
2018-04-25T21:24:25.024Z,18.90
2018-04-25T21:26:52.447Z,18.23
2018-04-25T21:29:20.628Z,21.90
2018-04-25T21:31:48.807Z,15.90
2018-04-25T21:34:16.232Z,18.07
2018-04-25T21:36:43.692Z,19.70
2018-04-25T21:39:12.037Z,25.93
2018-04-25T21:41:40.216Z,15.10
2018-04-25T21:44:07.652Z,17.13
2018-04-25T21:46:35.069Z,20.93
2018-04-25T21:49:03.247Z,17.43
2018-04-25T21:51:31.431Z,20.80
2018-04-25T21:53:59.619Z,18.07
2018-04-25T21:56:27.027Z,16.87
2018-04-25T21:58:54.437Z,20.03
2018-04-25T22:01:21.869Z,14.50
2018-04-25T22:03:49.283Z,17.20
2018-04-25T22:06:16.695Z,14.73
2018-04-25T22:08:44.124Z,19.27
2018-04-25T22:11:12.647Z,19.93
2018-04-25T22:13:40.069Z,16.90
2018-04-25T22:16:07.507Z,14.33
2018-04-25T22:18:35.732Z,16.03
2018-04-25T22:21:03.147Z,15.90
2018-04-25T22:23:30.557Z,22.80
2018-04-25T22:25:57.969Z,19.27
2018-04-25T22:28:25.398Z,27.70
2018-04-25T22:30:52.812Z,21.30
2018-04-25T22:33:20.251Z,24.10
2018-04-25T22:35:48.432Z,19.23
2018-04-25T22:38:15.840Z,18.70
2018-04-25T22:40:43.277Z,21.80
2018-04-25T22:43:11.467Z,19.80
2018-04-25T22:45:39.640Z,18.13
2018-04-25T22:48:07.844Z,21.40
2018-04-25T22:50:35.292Z,20.43
2018-04-25T22:53:03.503Z,21.93
2018-04-25T22:55:30.908Z,19.60
2018-04-25T22:57:58.341Z,20.70
2018-04-25T23:00:25.756Z,25.95
2018-04-25T23:02:53.188Z,22.80
2018-04-25T23:05:20.593Z,21.30
2018-04-25T23:07:48.028Z,20.00
2018-04-25T23:10:15.477Z,19.67
2018-04-25T23:12:44.377Z,22.85
2018-04-25T23:15:13.477Z,24.70
2018-04-25T23:17:41.669Z,22.00
2018-04-25T23:20:09.849Z,25.60
2018-04-25T23:22:38.020Z,21.93
2018-04-25T23:25:05.554Z,23.50
2018-04-25T23:27:32.896Z,19.00
2018-04-25T23:30:00.329Z,28.70
2018-04-25T23:32:27.735Z,25.98
2018-04-25T23:34:55.157Z,23.37
2018-04-25T23:37:22.595Z,21.87
2018-04-25T23:39:50.009Z,27.67
2018-04-25T23:42:17.438Z,29.73
2018-04-25T23:44:44.860Z,24.97
2018-04-25T23:47:12.268Z,27.90
2018-04-25T23:49:39.688Z,21.60
2018-04-25T23:52:07.872Z,22.50
2018-04-25T23:54:36.040Z,23.43
2018-04-25T23:57:04.267Z,21.90
2018-04-25T23:59:31.680Z,27.10
